Time,TemperatureF,DewpointF,PressureIn,WindDirection,WindDirectionDegrees,WindSpeedMPH,WindSpeedGustMPH,Humidity,HourlyPrecipIn,Conditions,Clouds,dailyrainin,SoftwareType,DateUTC
2013-02-24 00:00:00,44.5,30.2,27.24,ENE,68,0.0,0.0,57,0.00,,,0.00,WUHU216HW,2013-02-24 07:00:00,
2013-02-24 00:05:00,44.5,30.2,27.24,ENE,68,0.0,0.0,57,0.00,,,0.00,WUHU216HW,2013-02-24 07:05:00,
2013-02-24 00:10:00,44.5,30.2,27.24,ENE,68,0.0,0.0,57,0.00,,,0.00,WUHU216HW,2013-02-24 07:10:00,
2013-02-24 00:30:00,43.6,30.2,27.24,NNE,23,0.0,0.0,59,0.00,,,0.00,WUHU216HW,2013-02-24 07:30:00,
2013-02-24 00:35:00,43.6,30.2,27.24,NNE,23,0.0,0.0,59,0.00,,,0.00,WUHU216HW,2013-02-24 07:35:00,
2013-02-24 00:40:00,43.6,30.2,27.24,NNE,23,0.0,0.0,59,0.00,,,0.00,WUHU216HW,2013-02-24 07:40:00,
2013-02-24 01:00:00,42.8,29.9,27.24,NNE,23,0.0,0.0,60,0.00,,,0.00,WUHU216HW,2013-02-24 08:00:00,
2013-02-24 01:05:00,42.8,29.9,27.24,ENE,68,0.4,0.4,60,0.00,,,0.00,WUHU216HW,2013-02-24 08:05:00,
2013-02-24 01:10:00,42.8,29.9,27.24,ENE,68,0.4,0.4,60,0.00,,,0.00,WUHU216HW,2013-02-24 08:10:00,
2013-02-24 01:30:00,42.1,30.0,27.24,NE,45,0.0,0.0,62,0.00,,,0.00,WUHU216HW,2013-02-24 08:30:00,
2013-02-24 01:35:00,42.3,30.2,27.24,NE,45,0.0,0.0,62,0.00,,,0.00,WUHU216HW,2013-02-24 08:35:00,
2013-02-24 01:40:00,42.3,30.2,27.24,NE,45,0.0,0.0,62,0.00,,,0.00,WUHU216HW,2013-02-24 08:40:00,
2013-02-24 02:00:00,41.9,30.3,27.24,NNE,23,0.0,0.0,63,0.00,,,0.00,WUHU216HW,2013-02-24 09:00:00,
2013-02-24 02:05:00,41.9,30.3,27.24,NNE,23,0.0,0.0,63,0.00,,,0.00,WUHU216HW,2013-02-24 09:05:00,
2013-02-24 02:10:00,41.9,30.3,27.24,NNE,23,0.0,0.0,63,0.00,,,0.00,WUHU216HW,2013-02-24 09:10:00,
2013-02-24 02:30:00,40.9,29.6,27.23,NNW,338,0.0,0.0,64,0.00,,,0.00,WUHU216HW,2013-02-24 09:30:00,
2013-02-24 02:35:00,40.9,29.6,27.23,NNW,338,0.0,0.0,64,0.00,,,0.00,WUHU216HW,2013-02-24 09:35:00,
2013-02-24 02:40:00,40.9,29.6,27.23,NNW,338,0.0,0.0,64,0.00,,,0.00,WUHU216HW,2013-02-24 09:40:00,
2013-02-24 03:00:00,40.5,29.6,27.22,ENE,68,0.0,0.0,65,0.00,,,0.00,WUHU216HW,2013-02-24 10:00:00,
2013-02-24 03:05:00,40.5,29.6,27.22,NE,45,0.0,0.0,65,0.00,,,0.00,WUHU216HW,2013-02-24 10:05:00,
2013-02-24 03:10:00,40.5,29.6,27.22,NE,45,0.0,0.0,65,0.00,,,0.00,WUHU216HW,2013-02-24 10:10:00,
2013-02-24 03:30:00,40.0,29.4,27.21,NE,45,0.0,0.0,66,0.00,,,0.00,WUHU216HW,2013-02-24 10:30:00,
2013-02-24 03:35:00,40.0,29.4,27.21,NE,45,0.0,0.0,66,0.00,,,0.00,WUHU216HW,2013-02-24 10:35:00,
2013-02-24 03:40:00,40.0,29.4,27.21,NE,45,0.0,0.0,66,0.00,,,0.00,WUHU216HW,2013-02-24 10:40:00,
2013-02-24 04:00:00,39.6,29.1,27.20,NE,45,0.0,0.0,66,0.00,,,0.00,WUHU216HW,2013-02-24 11:00:00,
2013-02-24 04:05:00,39.6,29.1,27.20,NE,45,0.0,0.0,66,0.00,,,0.00,WUHU216HW,2013-02-24 11:05:00,
2013-02-24 04:10:00,39.6,29.1,27.20,NE,45,0.0,0.0,66,0.00,,,0.00,WUHU216HW,2013-02-24 11:10:00,
2013-02-24 04:30:00,39.2,29.1,27.20,North,0,0.0,0.0,67,0.00,,,0.00,WUHU216HW,2013-02-24 11:30:00,
2013-02-24 04:35:00,39.2,29.1,27.20,North,0,0.0,0.0,67,0.00,,,0.00,WUHU216HW,2013-02-24 11:35:00,
2013-02-24 04:40:00,39.2,29.1,27.20,North,0,0.0,0.0,67,0.00,,,0.00,WUHU216HW,2013-02-24 11:40:00,
2013-02-24 05:00:00,39.1,29.0,27.20,WSW,248,0.0,0.0,67,0.00,,,0.00,WUHU216HW,2013-02-24 12:00:00,
2013-02-24 05:05:00,39.1,29.0,27.20,WSW,248,0.0,0.0,67,0.00,,,0.00,WUHU216HW,2013-02-24 12:05:00,
2013-02-24 05:10:00,39.1,29.0,27.20,WSW,248,0.0,0.0,67,0.00,,,0.00,WUHU216HW,2013-02-24 12:10:00,
2013-02-24 05:30:00,39.2,29.5,27.21,North,0,0.0,0.0,68,0.00,,,0.00,WUHU216HW,2013-02-24 12:30:00,
2013-02-24 05:35:00,39.2,29.5,27.21,NNW,338,0.0,0.0,68,0.00,,,0.00,WUHU216HW,2013-02-24 12:35:00,
2013-02-24 05:40:00,39.2,29.5,27.21,NNW,338,0.0,0.0,68,0.00,,,0.00,WUHU216HW,2013-02-24 12:40:00,
2013-02-24 06:00:00,39.6,30.3,27.22,South,180,0.0,0.0,69,0.00,,,0.00,WUHU216HW,2013-02-24 13:00:00,
2013-02-24 06:05:00,39.6,30.3,27.22,SE,135,0.4,0.4,69,0.00,,,0.00,WUHU216HW,2013-02-24 13:05:00,
2013-02-24 06:10:00,39.6,30.3,27.22,SE,135,0.4,0.4,69,0.00,,,0.00,WUHU216HW,2013-02-24 13:10:00,
2013-02-24 06:30:00,40.1,30.4,27.23,NE,45,0.0,0.0,68,0.00,,,0.00,WUHU216HW,2013-02-24 13:30:00,
2013-02-24 06:35:00,40.0,30.3,27.23,NE,45,0.2,0.2,68,0.00,,,0.00,WUHU216HW,2013-02-24 13:35:00,
2013-02-24 06:40:00,40.0,30.3,27.23,NE,45,0.2,0.2,68,0.00,,,0.00,WUHU216HW,2013-02-24 13:40:00,
2013-02-24 07:00:00,40.0,30.3,27.24,South,180,0.4,0.4,68,0.00,,,0.00,WUHU216HW,2013-02-24 14:00:00,
2013-02-24 07:05:00,40.0,30.3,27.24,SW,225,0.7,0.7,68,0.00,,,0.00,WUHU216HW,2013-02-24 14:05:00,
2013-02-24 07:10:00,40.0,30.3,27.24,SW,225,0.7,0.7,68,0.00,,,0.00,WUHU216HW,2013-02-24 14:10:00,
2013-02-24 07:30:00,40.9,31.5,27.24,ESE,113,0.4,0.4,69,0.00,,,0.00,WUHU216HW,2013-02-24 14:30:00,
2013-02-24 07:35:00,40.9,31.5,27.24,ESE,113,0.4,0.4,69,0.00,,,0.00,WUHU216HW,2013-02-24 14:35:00,
2013-02-24 07:40:00,40.9,31.5,27.24,ESE,113,0.4,0.4,69,0.00,,,0.00,WUHU216HW,2013-02-24 14:40:00,
2013-02-24 08:00:00,41.9,31.8,27.26,ESE,113,0.4,0.4,67,0.00,,,0.00,WUHU216HW,2013-02-24 15:00:00,
2013-02-24 08:05:00,42.1,32.3,27.26,SE,135,0.4,0.4,68,0.00,,,0.00,WUHU216HW,2013-02-24 15:05:00,
2013-02-24 08:10:00,42.1,32.3,27.26,SE,135,0.4,0.4,68,0.00,,,0.00,WUHU216HW,2013-02-24 15:10:00,
2013-02-24 08:30:00,42.7,32.5,27.27,SW,225,0.9,0.9,67,0.00,,,0.00,WUHU216HW,2013-02-24 15:30:00,
2013-02-24 08:35:00,42.7,32.5,27.27,WSW,248,1.1,1.1,67,0.00,,,0.00,WUHU216HW,2013-02-24 15:35:00,
2013-02-24 08:40:00,42.7,32.5,27.27,WSW,248,1.1,1.1,67,0.00,,,0.00,WUHU216HW,2013-02-24 15:40:00,
2013-02-24 09:00:00,43.7,29.9,27.28,WSW,248,5.4,5.4,58,0.00,,,0.00,WUHU216HW,2013-02-24 16:00:00,
2013-02-24 09:05:00,43.7,29.9,27.28,SSW,203,5.4,5.8,58,0.00,,,0.00,WUHU216HW,2013-02-24 16:05:00,
2013-02-24 09:10:00,43.7,29.9,27.28,SSW,203,5.4,5.8,58,0.00,,,0.00,WUHU216HW,2013-02-24 16:10:00,
2013-02-24 09:30:00,45.4,26.7,27.29,SW,225,4.3,4.3,48,0.00,,,0.00,WUHU216HW,2013-02-24 16:30:00,
2013-02-24 09:35:00,45.4,26.7,27.29,WSW,248,4.9,4.9,48,0.00,,,0.00,WUHU216HW,2013-02-24 16:35:00,
2013-02-24 09:40:00,45.4,26.7,27.29,WSW,248,4.9,4.9,48,0.00,,,0.00,WUHU216HW,2013-02-24 16:40:00,
2013-02-24 10:00:00,46.4,25.6,27.30,WSW,248,7.2,7.2,44,0.00,,,0.00,WUHU216HW,2013-02-24 17:00:00,
2013-02-24 10:05:00,46.4,25.6,27.30,West,270,8.3,8.3,44,0.00,,,0.00,WUHU216HW,2013-02-24 17:05:00,
2013-02-24 10:10:00,46.4,25.6,27.30,West,270,8.3,8.3,44,0.00,,,0.00,WUHU216HW,2013-02-24 17:10:00,
2013-02-24 10:30:00,47.3,22.9,27.30,West,270,9.8,9.8,38,0.00,,,0.00,WUHU216HW,2013-02-24 17:30:00,
2013-02-24 10:35:00,47.2,22.7,27.30,West,270,9.8,9.8,38,0.00,,,0.00,WUHU216HW,2013-02-24 17:35:00,
2013-02-24 10:40:00,47.2,22.7,27.30,West,270,9.8,9.8,38,0.00,,,0.00,WUHU216HW,2013-02-24 17:40:00,
2013-02-24 11:00:00,47.5,22.4,27.31,WSW,248,8.5,8.5,37,0.00,,,0.00,WUHU216HW,2013-02-24 18:00:00,
2013-02-24 11:05:00,47.5,22.4,27.31,WSW,248,6.9,8.5,37,0.00,,,0.00,WUHU216HW,2013-02-24 18:05:00,
2013-02-24 11:10:00,47.5,22.4,27.31,WSW,248,6.9,6.9,37,0.00,,,0.00,WUHU216HW,2013-02-24 18:10:00,
2013-02-24 11:30:00,48.1,22.2,27.31,North,0,8.3,8.3,36,0.00,,,0.00,WUHU216HW,2013-02-24 18:30:00,
2013-02-24 11:35:00,47.9,22.7,27.31,WSW,248,6.9,8.3,37,0.00,,,0.00,WUHU216HW,2013-02-24 18:35:00,
2013-02-24 11:40:00,47.9,22.7,27.31,WSW,248,6.9,8.3,37,0.00,,,0.00,WUHU216HW,2013-02-24 18:40:00,
2013-02-24 12:00:00,47.9,20.1,27.31,West,270,8.9,8.9,33,0.00,,,0.00,WUHU216HW,2013-02-24 19:00:00,
2013-02-24 12:05:00,47.9,20.1,27.31,WSW,248,9.8,9.8,33,0.00,,,0.00,WUHU216HW,2013-02-24 19:05:00,
2013-02-24 12:10:00,47.9,20.1,27.31,WSW,248,9.8,9.8,33,0.00,,,0.00,WUHU216HW,2013-02-24 19:10:00,
2013-02-24 12:30:00,49.0,18.9,27.30,West,270,10.1,10.1,30,0.00,,,0.00,WUHU216HW,2013-02-24 19:30:00,
2013-02-24 12:35:00,49.0,18.9,27.30,WSW,248,8.1,10.3,30,0.00,,,0.00,WUHU216HW,2013-02-24 19:35:00,
2013-02-24 12:40:00,49.0,18.9,27.30,WSW,248,8.1,10.3,30,0.00,,,0.00,WUHU216HW,2013-02-24 19:40:00,
2013-02-24 13:00:00,49.3,14.6,27.29,WSW,248,7.6,7.6,25,0.00,,,0.00,WUHU216HW,2013-02-24 20:00:00,
2013-02-24 13:05:00,49.3,14.6,27.29,West,270,7.8,8.7,25,0.00,,,0.00,WUHU216HW,2013-02-24 20:05:00,
2013-02-24 13:10:00,49.3,14.6,27.29,West,270,7.8,8.7,25,0.00,,,0.00,WUHU216HW,2013-02-24 20:10:00,
2013-02-24 13:30:00,49.5,13.9,27.29,West,270,11.2,11.2,24,0.00,,,0.00,WUHU216HW,2013-02-24 20:30:00,
2013-02-24 13:35:00,49.5,12.9,27.29,West,270,11.2,11.2,23,0.00,,,0.00,WUHU216HW,2013-02-24 20:35:00,
2013-02-24 13:40:00,49.5,12.9,27.29,West,270,11.2,11.2,23,0.00,,,0.00,WUHU216HW,2013-02-24 20:40:00,
2013-02-24 14:00:00,49.5,11.1,27.29,NW,315,12.8,12.8,21,0.00,,,0.00,WUHU216HW,2013-02-24 21:00:00,
2013-02-24 14:05:00,49.5,11.1,27.29,West,270,9.2,12.8,21,0.00,,,0.00,WUHU216HW,2013-02-24 21:05:00,
2013-02-24 14:10:00,49.5,11.1,27.29,West,270,9.2,12.8,21,0.00,,,0.00,WUHU216HW,2013-02-24 21:10:00,
2013-02-24 14:30:00,49.7,10.3,27.30,WSW,248,12.1,12.1,20,0.00,,,0.00,WUHU216HW,2013-02-24 21:30:00,
2013-02-24 14:35:00,49.9,10.4,27.30,WNW,293,14.1,14.1,20,0.00,,,0.00,WUHU216HW,2013-02-24 21:35:00,
2013-02-24 14:40:00,49.9,10.4,27.30,WNW,293,14.1,14.1,20,0.00,,,0.00,WUHU216HW,2013-02-24 21:40:00,
2013-02-24 15:00:00,50.2,10.8,27.31,West,270,5.8,5.8,20,0.00,,,0.00,WUHU216HW,2013-02-24 22:00:00,
2013-02-24 15:05:00,50.2,10.8,27.31,WSW,248,4.0,5.8,20,0.00,,,0.00,WUHU216HW,2013-02-24 22:05:00,
2013-02-24 15:10:00,50.2,10.8,27.31,WSW,248,4.0,4.0,20,0.00,,,0.00,WUHU216HW,2013-02-24 22:10:00,
2013-02-24 15:30:00,50.2,7.7,27.32,WNW,293,6.9,6.9,18,0.00,,,0.00,WUHU216HW,2013-02-24 22:30:00,
2013-02-24 15:35:00,50.2,7.7,27.32,West,270,6.0,7.4,18,0.00,,,0.00,WUHU216HW,2013-02-24 22:35:00,
2013-02-24 15:40:00,50.2,7.7,27.32,West,270,6.0,7.4,18,0.00,,,0.00,WUHU216HW,2013-02-24 22:40:00,
2013-02-24 16:00:00,50.8,8.2,27.33,WNW,293,8.5,8.5,18,0.00,,,0.00,WUHU216HW,2013-02-24 23:00:00,
2013-02-24 16:05:00,50.8,8.2,27.33,West,270,5.8,8.5,18,0.00,,,0.00,WUHU216HW,2013-02-24 23:05:00,
2013-02-24 16:10:00,50.8,8.2,27.33,West,270,5.8,8.5,18,0.00,,,0.00,WUHU216HW,2013-02-24 23:10:00,
2013-02-24 16:30:00,50.8,11.2,27.34,WSW,248,0.7,0.7,20,0.00,,,0.00,WUHU216HW,2013-02-24 23:30:00,
2013-02-24 16:35:00,50.8,11.2,27.34,WSW,248,0.7,0.7,20,0.00,,,0.00,WUHU216HW,2013-02-24 23:35:00,
2013-02-24 16:40:00,50.8,11.2,27.34,WSW,248,0.7,0.7,20,0.00,,,0.00,WUHU216HW,2013-02-24 23:40:00,
2013-02-24 17:00:00,50.2,7.7,27.35,NNW,338,7.8,7.8,18,0.00,,,0.00,WUHU216HW,2013-02-25 00:00:00,
2013-02-24 17:05:00,50.2,9.3,27.35,West,270,6.5,7.8,19,0.00,,,0.00,WUHU216HW,2013-02-25 00:05:00,
2013-02-24 17:10:00,50.2,9.3,27.35,West,270,6.5,7.8,19,0.00,,,0.00,WUHU216HW,2013-02-25 00:10:00,
2013-02-24 17:30:00,50.4,10.9,27.36,West,270,2.0,2.0,20,0.00,,,0.00,WUHU216HW,2013-02-25 00:30:00,
2013-02-24 17:35:00,50.4,10.9,27.36,WSW,248,3.8,3.8,20,0.00,,,0.00,WUHU216HW,2013-02-25 00:35:00,
2013-02-24 18:00:00,49.9,11.3,27.37,NW,315,1.6,1.6,21,0.00,,,0.00,WUHU216HW,2013-02-25 01:00:00,
2013-02-24 18:05:00,49.7,11.3,27.37,NNE,23,1.1,1.6,21,0.00,,,0.00,WUHU216HW,2013-02-25 01:05:00,
2013-02-24 18:10:00,49.7,11.3,27.37,NNE,23,1.1,1.1,21,0.00,,,0.00,WUHU216HW,2013-02-25 01:10:00,
2013-02-24 18:30:00,48.6,10.3,27.38,NW,315,1.8,1.8,21,0.00,,,0.00,WUHU216HW,2013-02-25 01:30:00,
2013-02-24 18:35:00,48.6,10.3,27.38,NNW,338,1.8,4.7,21,0.00,,,0.00,WUHU216HW,2013-02-25 01:35:00,
2013-02-24 18:40:00,48.6,10.3,27.38,NNW,338,1.8,4.7,21,0.00,,,0.00,WUHU216HW,2013-02-25 01:40:00,
2013-02-24 19:00:00,47.9,10.6,27.39,North,0,3.4,3.4,22,0.00,,,0.00,WUHU216HW,2013-02-25 02:00:00,
2013-02-24 19:05:00,47.9,10.6,27.39,WNW,293,1.1,3.4,22,0.00,,,0.00,WUHU216HW,2013-02-25 02:05:00,
2013-02-24 19:10:00,47.9,10.6,27.39,WNW,293,1.1,3.4,22,0.00,,,0.00,WUHU216HW,2013-02-25 02:10:00,
2013-02-24 19:30:00,47.5,11.3,27.39,North,0,1.1,1.1,23,0.00,,,0.00,WUHU216HW,2013-02-25 02:30:00,
2013-02-24 19:35:00,47.5,11.3,27.39,NW,315,1.1,1.1,23,0.00,,,0.00,WUHU216HW,2013-02-25 02:35:00,
2013-02-24 19:40:00,47.5,11.3,27.39,NW,315,1.1,1.1,23,0.00,,,0.00,WUHU216HW,2013-02-25 02:40:00,
2013-02-24 20:00:00,46.6,12.3,27.40,West,270,0.0,0.0,25,0.00,,,0.00,WUHU216HW,2013-02-25 03:00:00,
2013-02-24 20:05:00,46.6,12.3,27.40,West,270,0.0,0.0,25,0.00,,,0.00,WUHU216HW,2013-02-25 03:05:00,
2013-02-24 20:10:00,46.6,12.3,27.40,West,270,0.0,0.0,25,0.00,,,0.00,WUHU216HW,2013-02-25 03:10:00,
2013-02-24 20:30:00,44.6,14.2,27.40,SE,135,0.2,0.2,29,0.00,,,0.00,WUHU216HW,2013-02-25 03:30:00,
2013-02-24 20:35:00,44.6,14.2,27.40,SE,135,0.0,0.2,29,0.00,,,0.00,WUHU216HW,2013-02-25 03:35:00,
2013-02-24 20:40:00,44.6,14.2,27.40,SE,135,0.0,0.0,29,0.00,,,0.00,WUHU216HW,2013-02-25 03:40:00,
2013-02-24 21:00:00,43.6,15.5,27.41,ESE,113,0.0,0.0,32,0.00,,,0.00,WUHU216HW,2013-02-25 04:00:00,
2013-02-24 21:05:00,43.6,15.5,27.41,ESE,113,0.0,0.0,32,0.00,,,0.00,WUHU216HW,2013-02-25 04:05:00,
2013-02-24 21:10:00,43.6,15.5,27.41,ESE,113,0.0,0.0,32,0.00,,,0.00,WUHU216HW,2013-02-25 04:10:00,
2013-02-24 21:30:00,42.1,14.2,27.41,ESE,113,0.0,0.0,32,0.00,,,0.00,WUHU216HW,2013-02-25 04:30:00,
2013-02-24 21:35:00,42.1,14.2,27.41,ENE,68,0.4,0.4,32,0.00,,,0.00,WUHU216HW,2013-02-25 04:35:00,
2013-02-24 21:40:00,42.1,14.2,27.41,ENE,68,0.4,0.4,32,0.00,,,0.00,WUHU216HW,2013-02-25 04:40:00,
2013-02-24 22:00:00,41.6,15.8,27.43,NE,45,0.4,0.4,35,0.00,,,0.00,WUHU216HW,2013-02-25 05:00:00,
2013-02-24 22:05:00,41.6,15.8,27.43,NE,45,0.4,0.4,35,0.00,,,0.00,WUHU216HW,2013-02-25 05:05:00,
2013-02-24 22:30:00,40.0,16.3,27.44,WSW,248,0.0,0.0,38,0.00,,,0.00,WUHU216HW,2013-02-25 05:30:00,
2013-02-24 22:35:00,40.0,16.3,27.44,WSW,248,0.0,0.0,38,0.00,,,0.00,WUHU216HW,2013-02-25 05:35:00,
2013-02-24 22:40:00,40.0,16.3,27.44,WSW,248,0.0,0.0,38,0.00,,,0.00,WUHU216HW,2013-02-25 05:40:00,
2013-02-24 23:00:00,39.2,16.3,27.44,West,270,0.0,0.0,39,0.00,,,0.00,WUHU216HW,2013-02-25 06:00:00,
2013-02-24 23:05:00,39.2,16.3,27.44,West,270,0.0,0.0,39,0.00,,,0.00,WUHU216HW,2013-02-25 06:05:00,
2013-02-24 23:10:00,39.2,16.3,27.44,West,270,0.0,0.0,39,0.00,,,0.00,WUHU216HW,2013-02-25 06:10:00,
2013-02-24 23:30:00,38.9,15.9,27.45,East,90,1.1,1.1,39,0.00,,,0.00,WUHU216HW,2013-02-25 06:30:00,
2013-02-24 23:35:00,38.9,15.9,27.45,East,90,1.1,1.1,39,0.00,,,0.00,WUHU216HW,2013-02-25 06:35:00,